Terminal Aerodrome Forecast
Issued by NWS Green Bay, WI

Home | Current Version | Previous Version | Text Only | Print | Product List | Glossary Off
Versions: 1 2 3 4 5 6 7 8 9 10 11 12 13 14 15 16 17 18 19 20 21 22 23 24 25 26 27 28 29 30 31 32 33 34 35 36 37 38 39 40 41 42 43 44 45 46

000
FTUS43 KGRB 201727
TAFGRB
TAF
KGRB 201727Z 2018/2118 25006KT 6SM BR SCT005 OVC010
      TEMPO 2018/2021 3SM -RA OVC004
     FM202200 27008KT 6SM BR OVC015
     FM210100 28009KT P6SM BKN025
     FM210500 30011G16KT P6SM SCT030
     FM211000 30009KT P6SM SKC=

USA.gov is the U.S. government's official web portal to all federal, state and local government web resources and services.